Time;durP1;ratioP1;P1;durP2;ratioP2;P2;SDS_P1;SDS_P2;PMS_P1;PMS_P2;Temp;Humidity;BMP_temperature;BMP_pressure;BME280_temperature;BME280_humidity;BME280_pressure;Samples;Min_cycle;Max_cycle;Signal;HPM_P1;HPM_P2
2024/01/01 00:00:18;;;;;;;143.60;71.53;;;;;;;4.54;81.46;92052.31;2061558;69;20241;-84
2024/01/01 00:02:45;;;;;;;146.35;73.95;;;;;;;4.79;80.34;92063.16;2058372;69;20237;-85
2024/01/01 00:05:11;;;;;;;174.85;88.53;;;;;;;4.47;81.76;92058.75;2061712;69;20220;-82
2024/01/01 00:07:37;;;;;;;184.80;93.13;;;;;;;4.63;81.92;92073.16;2058565;69;20592;-84
2024/01/01 00:10:03;;;;;;;166.52;81.28;;;;;;;4.80;80.74;92061.81;2061672;69;20145;-81
2024/01/01 00:12:30;;;;;;;163.00;84.65;;;;;;;4.78;80.66;92053.31;2061952;69;20157;-85
2024/01/01 00:14:56;;;;;;;172.25;88.90;;;;;;;4.79;80.55;92059.63;2061975;69;20242;-85
2024/01/01 00:17:22;;;;;;;176.45;89.78;;;;;;;4.77;80.09;92060.22;2062133;69;20494;-82
2024/01/01 00:19:47;;;;;;;174.90;88.63;;;;;;;4.75;80.33;92057.28;2062395;69;20183;-81
2024/01/01 00:22:13;;;;;;;174.13;86.60;;;;;;;4.77;79.44;92060.22;2062289;69;20196;-82
2024/01/01 00:24:38;;;;;;;143.82;68.10;;;;;;;4.43;81.27;92052.16;2061485;69;20520;-83
2024/01/01 00:27:04;;;;;;;127.45;62.38;;;;;;;4.42;81.56;92059.06;2061748;69;20141;-82
2024/01/01 00:29:30;;;;;;;132.88;64.65;;;;;;;4.47;81.46;92055.97;2058390;69;20149;-81
2024/01/01 00:31:56;;;;;;;110.28;54.42;;;;;;;4.16;82.44;92055.09;2058350;69;20133;-82
2024/01/01 00:34:22;;;;;;;129.13;60.17;;;;;;;4.03;83.32;92059.03;2058286;69;20141;-81
2024/01/01 00:36:48;;;;;;;127.10;59.40;;;;;;;4.31;83.46;92074.31;2061631;69;20152;-84
2024/01/01 00:39:14;;;;;;;119.90;57.80;;;;;;;4.53;81.97;92069.63;2057940;69;20161;-82
2024/01/01 00:41:40;;;;;;;124.95;58.85;;;;;;;4.65;81.46;92070.50;2061792;69;20157;-85
2024/01/01 00:44:06;;;;;;;115.68;56.28;;;;;;;4.64;81.06;92052.31;2061653;69;20605;-84
2024/01/01 00:46:32;;;;;;;109.03;53.00;;;;;;;4.46;81.69;92042.63;2058242;69;20153;-83
2024/01/01 00:48:58;;;;;;;107.95;52.38;;;;;;;4.61;81.46;92047.16;2061548;69;20203;-84
2024/01/01 00:51:24;;;;;;;101.18;50.30;;;;;;;4.55;81.18;92039.13;2061963;69;20173;-83
2024/01/01 00:53:52;;;;;;;103.38;50.72;;;;;;;4.55;80.88;92047.47;2058272;69;20150;-84
2024/01/01 00:56:17;;;;;;;108.75;52.50;;;;;;;4.60;81.28;92057.59;2062202;69;20189;-84
2024/01/01 00:58:43;;;;;;;114.38;54.03;;;;;;;4.63;80.65;92067.56;2062313;69;20252;-81
2024/01/01 01:01:09;;;;;;;113.35;55.67;;;;;;;4.53;81.07;92055.69;2062177;69;20184;-81
2024/01/01 01:03:35;;;;;;;103.70;51.60;;;;;;;4.41;81.48;92052.75;2058122;69;20249;-80
2024/01/01 01:06:05;;;;;;;97.57;47.58;;;;;;;3.98;83.49;92046.84;2058818;69;20220;-81
2024/01/01 01:08:31;;;;;;;102.45;50.08;;;;;;;4.09;83.93;92051.13;2060078;69;20207;-81
2024/01/01 01:10:57;;;;;;;102.60;48.38;;;;;;;4.32;82.60;92068.16;2062051;69;20195;-84
2024/01/01 01:13:22;;;;;;;91.07;46.03;;;;;;;4.46;81.92;92078.88;2058080;69;20158;-85
2024/01/01 01:15:49;;;;;;;94.82;46.20;;;;;;;4.50;81.01;92077.13;2059935;69;20156;-82
2024/01/01 01:18:15;;;;;;;92.45;46.10;;;;;;;4.51;81.03;92083.41;2061950;69;20232;-80
2024/01/01 01:20:43;;;;;;;95.40;46.20;;;;;;;4.55;81.28;92084.44;2061995;69;20226;-81
2024/01/01 01:23:10;;;;;;;99.45;47.08;;;;;;;4.42;81.72;92095.28;2061657;69;20584;-84
2024/01/01 01:25:36;;;;;;;86.47;44.92;;;;;;;4.23;83.05;92093.97;2058686;69;20152;-83
2024/01/01 01:28:05;;;;;;;97.95;47.83;;;;;;;4.18;83.58;92094.25;2058739;69;20138;-82
2024/01/01 01:30:31;;;;;;;95.88;46.58;;;;;;;4.27;83.29;92083.13;2061403;69;20145;-83
2024/01/01 01:32:57;;;;;;;87.88;43.85;;;;;;;4.54;81.27;92104.56;2062085;69;20223;-84
2024/01/01 01:35:23;;;;;;;95.22;46.45;;;;;;;4.57;80.77;92106.16;2058624;69;20601;-82
2024/01/01 01:37:49;;;;;;;89.20;44.00;;;;;;;4.64;81.24;92108.06;2061676;69;20695;-84
2024/01/01 01:40:14;;;;;;;91.45;43.53;;;;;;;4.65;81.04;92109.53;2059246;69;20149;-84
2024/01/01 01:42:45;;;;;;;85.90;43.40;;;;;;;4.69;80.01;92111.88;2061924;69;20225;-84
2024/01/01 01:45:10;;;;;;;86.50;43.75;;;;;;;4.64;80.24;92113.66;2062545;69;20155;-82
2024/01/01 01:47:37;;;;;;;81.43;40.20;;;;;;;4.64;80.48;92116.44;2058965;69;20153;-84
2024/01/01 01:50:06;;;;;;;78.88;40.50;;;;;;;4.78;79.98;92134.19;2061853;69;20146;-82
2024/01/01 01:52:33;;;;;;;86.55;42.50;;;;;;;4.80;79.97;92137.09;2062320;69;20169;-86
2024/01/01 01:54:59;;;;;;;79.72;40.00;;;;;;;4.89;78.97;92138.44;2062940;69;20154;-86
2024/01/01 01:57:26;;;;;;;80.97;40.03;;;;;;;4.84;79.82;92140.19;2056528;69;20203;-88
2024/01/01 01:59:53;;;;;;;83.70;39.40;;;;;;;4.83;79.84;92127.56;2056098;69;20148;-85
2024/01/01 02:02:22;;;;;;;71.32;35.75;;;;;;;4.82;79.65;92128.19;2059369;69;20248;-85
2024/01/01 02:04:50;;;;;;;68.30;34.58;;;;;;;4.90;79.68;92119.63;2059167;69;20556;-83
2024/01/01 02:07:15;;;;;;;70.85;36.63;;;;;;;4.87;79.68;92121.56;2058262;69;20161;-82
2024/01/01 02:13:28;;;;;;;65.80;33.60;;;;;;;4.80;79.44;92112.00;2058546;69;20211;-84
2024/01/01 02:15:54;;;;;;;68.32;33.85;;;;;;;4.77;79.69;92120.84;2058343;69;20185;-85
2024/01/01 02:18:21;;;;;;;63.55;33.35;;;;;;;4.76;79.00;92113.78;2061115;69;20592;-82
2024/01/01 02:20:57;;;;;;;68.57;34.53;;;;;;;4.47;81.15;92119.34;2058176;69;20141;-86
2024/01/01 02:23:25;;;;;;;73.43;36.20;;;;;;;4.19;81.83;92115.22;2060217;69;20193;-85
2024/01/01 02:25:50;;;;;;;72.50;37.10;;;;;;;4.43;81.04;92117.00;2058173;69;20148;-84
2024/01/01 02:28:16;;;;;;;70.43;35.95;;;;;;;4.62;80.03;92121.84;2057853;69;20157;-84
2024/01/01 02:30:42;;;;;;;68.95;34.47;;;;;;;4.63;80.39;92114.97;2057675;69;20165;-85
2024/01/01 02:33:11;;;;;;;67.30;34.55;;;;;;;4.67;80.11;92112.44;2060181;69;20149;-84
2024/01/01 02:35:38;;;;;;;68.35;34.65;;;;;;;4.71;79.61;92115.53;2056843;69;20236;-81
2024/01/01 02:38:04;;;;;;;65.32;33.15;;;;;;;4.71;80.29;92120.38;2054294;69;20741;-85
2024/01/01 02:40:32;;;;;;;65.30;33.50;;;;;;;4.64;80.51;92110.84;2058218;69;20157;-85
2024/01/01 02:43:00;;;;;;;60.38;31.58;;;;;;;4.69;79.59;92118.19;2061110;69;20189;-83
2024/01/01 02:45:30;;;;;;;64.35;32.83;;;;;;;4.68;79.92;92107.63;2061612;69;20153;-86
2024/01/01 02:47:55;;;;;;;64.75;32.05;;;;;;;4.70;79.81;92111.28;2058093;69;20619;-86
2024/01/01 02:50:22;;;;;;;63.08;32.40;;;;;;;4.68;80.04;92116.72;2059683;69;20149;-83
2024/01/01 02:52:48;;;;;;;62.88;32.25;;;;;;;4.56;79.91;92094.28;2061365;69;20229;-86
2024/01/01 02:55:14;;;;;;;66.38;31.92;;;;;;;4.63;80.19;92114.97;2061737;69;20589;-86
2024/01/01 02:57:40;;;;;;;62.83;32.03;;;;;;;4.71;80.31;92115.53;2057333;69;20145;-85
2024/01/01 03:00:09;;;;;;;61.35;29.20;;;;;;;4.73;79.67;92112.91;2055325;69;20153;-85
2024/01/01 03:02:38;;;;;;;61.08;31.90;;;;;;;4.04;82.47;92114.16;2061507;69;20173;-84
2024/01/01 03:05:06;;;;;;;65.60;33.15;;;;;;;3.99;83.53;92109.59;2060980;69;20169;-84
2024/01/01 03:07:32;;;;;;;62.17;31.70;;;;;;;4.18;82.99;92113.75;2061495;69;20141;-83
2024/01/01 03:09:58;;;;;;;66.30;32.92;;;;;;;4.48;81.31;92101.31;2058217;69;20141;-82
2024/01/01 03:12:25;;;;;;;64.50;32.83;;;;;;;4.58;80.81;92099.25;2060518;69;20153;-87
2024/01/01 03:14:50;;;;;;;74.45;33.50;;;;;;;4.57;80.82;92114.50;2058112;69;20149;-82
2024/01/01 03:17:17;;;;;;;69.03;34.13;;;;;;;4.51;81.16;92112.03;2058267;69;20152;-85
2024/01/01 03:19:43;;;;;;;65.40;31.80;;;;;;;4.63;80.81;92108.63;2060774;69;20275;-86
2024/01/01 03:22:09;;;;;;;68.07;33.20;;;;;;;4.66;80.53;92104.69;2060871;69;20134;-86
2024/01/01 03:24:35;;;;;;;61.97;31.23;;;;;;;4.71;80.16;92104.38;2061337;69;20516;-84
2024/01/01 03:27:00;;;;;;;63.17;31.75;;;;;;;4.71;79.78;92089.72;2061145;69;20295;-86
2024/01/01 03:29:27;;;;;;;58.42;30.30;;;;;;;4.61;78.94;92089.00;2057798;69;20199;-86
2024/01/01 03:31:53;;;;;;;63.83;32.35;;;;;;;4.52;80.82;92093.97;2062827;69;20121;-83
2024/01/01 03:34:20;;;;;;;68.57;32.08;;;;;;;4.64;80.71;92096.91;2063151;69;20189;-83
2024/01/01 03:36:46;;;;;;;64.43;31.77;;;;;;;4.76;79.39;92102.63;2061628;69;20169;-85
2024/01/01 03:39:11;;;;;;;64.90;32.30;;;;;;;4.78;79.42;92111.88;2062541;69;20207;-82
2024/01/01 03:41:37;;;;;;;60.95;31.27;;;;;;;4.80;79.95;92114.81;2063558;69;20157;-84
2024/01/01 03:44:03;;;;;;;60.75;30.20;;;;;;;4.80;79.80;92116.84;2063019;69;20149;-82
2024/01/01 03:46:28;;;;;;;55.45;28.98;;;;;;;4.82;79.42;92114.97;2062544;69;20199;-82
2024/01/01 03:48:54;;;;;;;62.97;31.05;;;;;;;4.23;80.86;92124.59;2058990;69;20193;-84
2024/01/01 03:51:19;;;;;;;59.65;31.15;;;;;;;4.44;80.99;92118.47;2063293;69;20160;-85
2024/01/01 03:53:45;;;;;;;66.30;31.55;;;;;;;4.68;80.03;92118.78;2056195;69;20510;-85
2024/01/01 03:56:11;;;;;;;60.40;28.88;;;;;;;4.71;79.27;92117.59;2061750;69;20153;-85
2024/01/01 03:58:37;;;;;;;61.72;30.77;;;;;;;4.73;79.33;92126.84;2063412;69;20149;-84
2024/01/01 04:01:04;;;;;;;54.47;26.50;;;;;;;4.65;79.52;92119.94;2064375;69;20241;-83
2024/01/01 04:03:29;;;;;;;25.52;14.02;;;;;;;4.59;79.16;92115.41;2061433;69;20145;-83
2024/01/01 04:05:55;;;;;;;62.70;31.50;;;;;;;4.27;81.07;92113.75;2060918;69;20171;-84
2024/01/01 04:08:22;;;;;;;59.53;29.05;;;;;;;4.44;80.61;92121.25;2056510;69;20941;-84
2024/01/01 04:10:48;;;;;;;54.97;27.90;;;;;;;4.46;80.69;92124.19;2061884;69;20204;-84
2024/01/01 04:13:14;;;;;;;50.30;25.23;;;;;;;4.47;80.07;92116.56;2057753;69;20625;-82
2024/01/01 04:15:39;;;;;;;39.72;20.15;;;;;;;4.46;78.81;92115.09;2057968;69;20165;-82
2024/01/01 04:18:06;;;;;;;25.15;13.35;;;;;;;4.34;79.69;92112.88;2060761;69;20620;-82
2024/01/01 04:20:32;;;;;;;20.42;10.00;;;;;;;4.23;79.67;92105.09;2060554;69;20268;-83
2024/01/01 04:22:58;;;;;;;18.90;10.00;;;;;;;4.26;79.89;92122.69;2058488;69;20203;-83
2024/01/01 04:25:23;;;;;;;16.13;9.35;;;;;;;4.23;79.67;92121.09;2061805;69;20942;-86
2024/01/01 04:27:51;;;;;;;16.92;9.20;;;;;;;4.16;79.30;92130.31;2061832;69;20145;-85
2024/01/01 04:30:18;;;;;;;25.05;11.75;;;;;;;3.65;81.90;92137.63;2061734;69;20241;-86
2024/01/01 04:32:43;;;;;;;29.55;15.52;;;;;;;3.79;80.92;92136.66;2061830;69;20188;-86
2024/01/01 04:35:10;;;;;;;32.55;16.90;;;;;;;3.85;80.50;92125.25;2058062;69;20149;-86
2024/01/01 04:37:36;;;;;;;36.30;18.15;;;;;;;3.78;80.16;92128.88;2061564;69;20212;-87
2024/01/01 04:40:02;;;;;;;36.50;19.60;;;;;;;3.89;80.14;92125.53;2062078;69;20141;-85
2024/01/01 04:42:27;;;;;;;44.88;20.88;;;;;;;3.86;79.72;92121.16;2061931;69;20165;-84
2024/01/01 04:44:54;;;;;;;38.67;19.00;;;;;;;3.82;79.51;92113.22;2061575;69;20195;-85
2024/01/01 04:47:20;;;;;;;24.58;11.95;;;;;;;3.75;79.31;92116.09;2062013;69;20136;-87
2024/01/01 04:49:45;;;;;;;21.45;10.52;;;;;;;3.68;79.20;92125.31;2061501;69;20161;-85
2024/01/01 04:52:11;;;;;;;18.42;9.48;;;;;;;3.55;79.13;92115.31;2058509;69;20168;-84
2024/01/01 04:54:37;;;;;;;21.35;11.50;;;;;;;3.04;80.93;92120.47;2061966;69;20229;-83
2024/01/01 04:57:03;;;;;;;32.55;16.92;;;;;;;3.22;81.23;92121.16;2058627;69;20145;-85
2024/01/01 04:59:28;;;;;;;27.70;13.93;;;;;;;3.39;80.96;92123.16;2057955;69;20162;-83
2024/01/01 05:01:54;;;;;;;28.08;15.00;;;;;;;3.36;80.56;92118.75;2058499;69;20204;-84
2024/01/01 05:04:22;;;;;;;27.50;14.80;;;;;;;3.41;80.03;92128.13;2061135;69;20153;-84
2024/01/01 05:06:49;;;;;;;18.35;8.75;;;;;;;3.34;80.18;92134.53;2062048;69;20220;-85
2024/01/01 05:09:16;;;;;;;11.18;5.65;;;;;;;3.38;79.89;92140.41;2061699;69;20153;-84
2024/01/01 05:11:41;;;;;;;9.07;5.28;;;;;;;3.39;79.71;92139.09;2061739;69;20697;-83
2024/01/01 05:14:08;;;;;;;10.35;4.93;;;;;;;3.35;79.46;92133.97;2061501;69;20199;-84
2024/01/01 05:16:34;;;;;;;16.45;8.77;;;;;;;2.82;82.92;92146.50;2062104;69;20516;-83
2024/01/01 05:19:01;;;;;;;26.73;12.38;;;;;;;3.16;80.92;92148.50;2058011;69;20145;-83
2024/01/01 05:21:27;;;;;;;28.90;14.93;;;;;;;3.19;80.41;92136.22;2058701;69;20176;-82
2024/01/01 05:23:53;;;;;;;26.40;13.05;;;;;;;2.97;81.62;92140.75;2057993;69;20177;-82
2024/01/01 05:26:19;;;;;;;23.67;12.90;;;;;;;2.85;82.36;92139.09;2061935;69;20153;-83
2024/01/01 05:28:46;;;;;;;26.73;14.00;;;;;;;2.51;85.03;92138.50;2057880;69;20686;-83
2024/01/01 05:31:18;;;;;;;22.50;11.35;;;;;;;2.53;84.31;92149.81;2057464;69;20153;-84
2024/01/01 05:33:44;;;;;;;24.00;11.55;;;;;;;2.85;83.63;92147.41;2056091;69;20189;-85
2024/01/01 05:36:15;;;;;;;17.45;9.40;;;;;;;3.02;81.04;92155.72;2058626;69;20243;-85
2024/01/01 05:38:41;;;;;;;21.25;10.07;;;;;;;3.00;82.36;92153.53;2056427;69;20145;-85
2024/01/01 05:41:11;;;;;;;19.83;9.82;;;;;;;3.16;81.45;92164.44;2061981;69;20141;-84
2024/01/01 05:43:37;;;;;;;16.88;9.57;;;;;;;3.17;81.24;92160.38;2061556;69;20160;-82
2024/01/01 05:46:03;;;;;;;19.13;8.73;;;;;;;3.15;81.21;92155.38;2061212;69;20192;-82
2024/01/01 05:48:31;;;;;;;18.95;9.88;;;;;;;3.20;81.44;92164.75;2061117;69;20231;-83
2024/01/01 05:50:57;;;;;;;17.77;9.15;;;;;;;3.13;80.84;92166.34;2060628;69;20149;-82
2024/01/01 05:53:22;;;;;;;20.42;10.82;;;;;;;3.14;80.50;92170.59;2056241;69;20152;-85
2024/01/01 05:55:48;;;;;;;21.33;10.88;;;;;;;3.14;80.76;92164.28;2060472;69;20200;-84
2024/01/01 05:58:15;;;;;;;28.15;13.68;;;;;;;3.15;81.26;92179.66;2059541;69;20199;-83
2024/01/01 06:00:41;;;;;;;22.42;11.20;;;;;;;3.21;80.38;92183.69;2059205;69;20597;-81
2024/01/01 06:03:11;;;;;;;19.60;10.40;;;;;;;3.13;81.25;92180.25;2057533;69;20141;-81
2024/01/01 06:05:39;;;;;;;19.95;10.07;;;;;;;3.23;80.94;92185.88;2058102;69;20165;-81
2024/01/01 06:08:06;;;;;;;21.92;11.23;;;;;;;2.93;82.05;92189.75;2061769;69;20202;-81
2024/01/01 06:10:32;;;;;;;23.83;11.18;;;;;;;2.97;82.37;92195.63;2057349;69;20240;-85
2024/01/01 06:12:58;;;;;;;23.98;11.95;;;;;;;3.05;81.59;92188.69;2058172;69;20164;-83
2024/01/01 06:15:25;;;;;;;21.73;11.60;;;;;;;3.16;80.99;92192.25;2061392;69;20153;-82
2024/01/01 06:17:52;;;;;;;18.30;10.20;;;;;;;3.05;81.19;92204.63;2061839;69;20532;-84
2024/01/01 06:20:18;;;;;;;18.35;9.35;;;;;;;3.15;81.12;92210.25;2061403;69;20149;-82
2024/01/01 06:22:46;;;;;;;17.83;8.65;;;;;;;3.20;80.84;92204.44;2061687;69;20145;-84
2024/01/01 06:25:12;;;;;;;17.48;9.52;;;;;;;3.11;80.96;92204.38;2061481;69;20175;-83
2024/01/01 06:27:38;;;;;;;20.83;10.43;;;;;;;2.82;81.33;92204.16;2057960;69;20215;-87
2024/01/01 06:30:05;;;;;;;19.95;10.65;;;;;;;3.06;81.03;92215.16;2061300;69;20145;-85
2024/01/01 06:32:31;;;;;;;21.23;10.25;;;;;;;3.04;81.30;92222.63;2061322;69;20157;-84
2024/01/01 06:34:58;;;;;;;18.60;10.00;;;;;;;3.09;81.12;92226.47;2061673;69;20216;-87
2024/01/01 06:37:24;;;;;;;23.05;12.35;;;;;;;3.03;81.06;92235.06;2061606;69;20165;-86
2024/01/01 06:39:50;;;;;;;34.40;18.63;;;;;;;2.80;82.11;92224.94;2060980;69;20150;-85
2024/01/01 06:42:17;;;;;;;32.67;16.40;;;;;;;2.93;81.38;92218.31;2061471;69;20150;-82
2024/01/01 06:44:43;;;;;;;21.65;11.68;;;;;;;2.98;79.85;92222.88;2061546;69;20148;-83
2024/01/01 06:47:10;;;;;;;18.10;9.88;;;;;;;2.33;84.10;92230.75;2060842;69;20525;-85
2024/01/01 06:49:35;;;;;;;16.80;9.45;;;;;;;2.61;82.89;92226.78;2058084;69;20138;-84
2024/01/01 06:52:03;;;;;;;17.50;9.13;;;;;;;2.64;81.96;92229.16;2060808;69;20556;-82
2024/01/01 06:54:29;;;;;;;17.40;7.95;;;;;;;2.68;82.23;92226.72;2057331;69;20212;-84
2024/01/01 06:56:56;;;;;;;15.10;7.43;;;;;;;2.75;81.37;92234.25;2060792;69;20193;-83
2024/01/01 06:59:31;;;;;;;12.18;6.20;;;;;;;2.64;81.09;92229.16;2053950;69;20181;-84
2024/01/01 07:01:59;;;;;;;9.75;5.90;;;;;;;2.23;82.38;92234.16;2061514;69;20238;-81
2024/01/01 07:04:27;;;;;;;20.90;8.40;;;;;;;2.18;84.90;92239.94;2061277;69;20240;-84
2024/01/01 07:06:53;;;;;;;11.93;6.30;;;;;;;2.10;84.55;92219.84;2058159;69;20169;-83
2024/01/01 07:09:19;;;;;;;9.18;5.75;;;;;;;2.44;83.26;92238.63;2060183;69;20438;-84
2024/01/01 07:11:45;;;;;;;12.18;5.53;;;;;;;2.45;82.88;92254.72;2061129;69;20230;-83
2024/01/01 07:14:11;;;;;;;10.32;5.43;;;;;;;2.50;82.44;92264.13;2060300;69;20640;-81
2024/01/01 07:16:37;;;;;;;9.82;5.05;;;;;;;2.19;82.94;92244.19;2057687;69;20163;-83
2024/01/01 07:19:05;;;;;;;8.80;5.13;;;;;;;2.44;82.92;92271.97;2060528;69;20153;-80
2024/01/01 07:21:31;;;;;;;11.50;6.47;;;;;;;2.54;82.20;92264.47;2057312;69;20157;-81
2024/01/01 07:23:57;;;;;;;9.43;5.13;;;;;;;2.53;81.77;92274.84;2060982;69;20161;-81
2024/01/01 07:26:24;;;;;;;6.28;3.72;;;;;;;2.56;81.71;92275.75;2055670;69;20195;-81
2024/01/01 07:28:51;;;;;;;5.38;3.20;;;;;;;2.62;82.06;92279.03;2058044;69;20188;-81
2024/01/01 07:31:18;;;;;;;7.95;4.40;;;;;;;2.50;82.97;92287.09;2059201;69;20223;-81
2024/01/01 07:33:43;;;;;;;12.65;6.63;;;;;;;2.71;81.80;92295.06;2061860;69;20169;-81
2024/01/01 07:36:11;;;;;;;16.25;9.10;;;;;;;2.68;81.62;92298.97;2062900;69;20189;-82
2024/01/01 07:38:41;;;;;;;20.95;10.63;;;;;;;2.45;81.96;92299.19;2062159;69;20632;-82
2024/01/01 07:41:07;;;;;;;19.63;9.75;;;;;;;2.59;82.00;92301.66;2058050;69;20152;-82
2024/01/01 07:43:36;;;;;;;17.10;8.63;;;;;;;2.73;80.85;92311.16;2054955;69;20177;-81
2024/01/01 07:46:03;;;;;;;12.63;7.00;;;;;;;2.58;81.16;92317.59;2059393;69;20153;-81
2024/01/01 07:48:28;;;;;;;13.30;7.43;;;;;;;2.75;80.99;92314.13;2061840;69;20133;-82
2024/01/01 07:50:54;;;;;;;14.70;7.75;;;;;;;2.60;81.13;92297.56;2061626;69;20160;-80
2024/01/01 07:53:20;;;;;;;14.85;8.48;;;;;;;2.59;81.65;92305.19;2062183;69;20153;-82
2024/01/01 07:55:46;;;;;;;14.55;7.93;;;;;;;2.73;81.27;92306.34;2061638;69;20145;-81
2024/01/01 07:58:11;;;;;;;9.40;4.93;;;;;;;2.77;81.12;92301.13;2058337;69;20149;-80
2024/01/01 08:00:39;;;;;;;6.97;3.15;;;;;;;2.82;80.03;92296.63;2061150;69;20142;-81
2024/01/01 08:03:06;;;;;;;5.85;3.05;;;;;;;2.88;80.61;92293.59;2061578;69;20170;-82
2024/01/01 08:05:31;;;;;;;7.30;3.25;;;;;;;2.89;81.09;92292.31;2061529;69;20231;-82
2024/01/01 08:07:58;;;;;;;6.00;2.90;;;;;;;2.62;83.19;92287.38;2057545;69;20227;-81
2024/01/01 08:10:23;;;;;;;5.13;2.60;;;;;;;2.79;81.88;92295.75;2055063;69;20149;-82
2024/01/01 08:12:49;;;;;;;7.80;3.28;;;;;;;2.91;81.05;92306.38;2058394;69;20149;-83
2024/01/01 08:15:16;;;;;;;10.93;6.22;;;;;;;2.83;81.45;92312.00;2057070;69;20161;-82
2024/01/01 08:17:42;;;;;;;11.93;6.18;;;;;;;2.71;81.28;92297.13;2061561;69;20188;-82
2024/01/01 08:20:10;;;;;;;11.85;6.43;;;;;;;2.78;80.87;92315.75;2055176;69;20169;-82
2024/01/01 08:22:37;;;;;;;8.63;5.35;;;;;;;2.83;80.87;92325.16;2058395;69;20141;-84
2024/01/01 08:25:03;;;;;;;9.73;5.85;;;;;;;2.87;80.50;92328.28;2061275;69;20149;-81
2024/01/01 08:27:30;;;;;;;8.80;5.20;;;;;;;2.88;80.62;92335.31;2061217;69;20217;-81
2024/01/01 08:29:56;;;;;;;15.20;8.63;;;;;;;2.38;82.33;92343.69;2060899;69;20219;-81
2024/01/01 08:32:21;;;;;;;16.40;8.40;;;;;;;2.53;83.18;92347.09;2061394;69;20141;-85
2024/01/01 08:34:47;;;;;;;12.85;6.95;;;;;;;2.75;82.33;92351.00;2061371;69;20157;-83
2024/01/01 08:37:12;;;;;;;9.15;5.00;;;;;;;2.75;82.10;92348.22;2057697;69;20142;-84
2024/01/01 08:39:39;;;;;;;6.45;3.88;;;;;;;2.75;81.70;92345.44;2060885;69;20165;-82
2024/01/01 08:42:05;;;;;;;9.32;5.32;;;;;;;2.52;82.08;92334.50;2061116;69;20540;-84
2024/01/01 08:44:31;;;;;;;11.05;5.55;;;;;;;2.63;82.67;92340.91;2061455;69;20141;-87
2024/01/01 08:46:58;;;;;;;10.30;5.40;;;;;;;2.68;83.20;92337.16;2058199;69;20528;-84
2024/01/01 08:49:24;;;;;;;11.88;5.00;;;;;;;2.95;82.56;92343.59;2061221;69;20189;-80
2024/01/01 08:51:49;;;;;;;9.13;4.53;;;;;;;2.82;83.28;92352.22;2061444;69;20636;-79
2024/01/01 08:54:16;;;;;;;9.95;3.80;;;;;;;3.11;82.51;92352.50;2060889;69;20148;-78
2024/01/01 08:56:43;;;;;;;6.93;3.83;;;;;;;3.41;81.22;92361.88;2058158;69;20153;-81
2024/01/01 08:59:13;;;;;;;5.22;2.90;;;;;;;3.51;80.58;92357.13;2058099;69;20157;-80
2024/01/01 09:01:43;;;;;;;12.82;6.53;;;;;;;3.38;80.58;92360.97;2061196;69;20146;-78
2024/01/01 09:04:09;;;;;;;24.98;12.70;;;;;;;3.47;79.58;92360.31;2061269;69;20153;-78
2024/01/01 09:06:34;;;;;;;20.80;10.75;;;;;;;3.65;79.33;92355.47;2061477;69;20529;-80
2024/01/01 09:09:01;;;;;;;17.42;9.27;;;;;;;3.55;79.28;92360.22;2061082;69;20211;-79
2024/01/01 09:11:26;;;;;;;9.25;5.30;;;;;;;3.82;78.43;92347.09;2061794;69;20149;-80
2024/01/01 09:13:52;;;;;;;5.95;3.83;;;;;;;3.97;76.86;92357.31;2061894;69;20157;-81
2024/01/01 09:16:17;;;;;;;5.47;3.17;;;;;;;4.26;75.94;92343.56;2061821;69;20172;-83
2024/01/01 09:18:44;;;;;;;7.43;3.85;;;;;;;4.49;76.92;92348.06;2061449;69;20589;-80
2024/01/01 09:21:15;;;;;;;9.55;5.18;;;;;;;4.74;75.20;92342.31;2061694;69;20357;-80
2024/01/01 09:23:41;;;;;;;8.05;4.93;;;;;;;4.72;75.31;92347.72;2061527;69;20208;-84
2024/01/01 09:26:07;;;;;;;7.70;4.93;;;;;;;4.56;75.83;92350.00;2055679;69;20233;-78
2024/01/01 09:28:33;;;;;;;12.48;7.55;;;;;;;4.71;74.59;92346.97;2061823;69;20153;-79
2024/01/01 09:30:59;;;;;;;6.50;4.05;;;;;;;4.70;74.75;92350.34;2057928;69;20166;-80
2024/01/01 09:33:27;;;;;;;7.78;3.95;;;;;;;4.44;74.79;92344.22;2055260;69;20760;-82
2024/01/01 09:35:55;;;;;;;15.32;9.38;;;;;;;3.98;75.96;92363.63;2061021;69;20541;-82
2024/01/01 09:38:21;;;;;;;10.63;6.43;;;;;;;4.11;77.84;92362.53;2061544;69;20141;-81
2024/01/01 09:40:49;;;;;;;11.43;6.80;;;;;;;4.94;76.31;92379.34;2061312;69;20266;-81
2024/01/01 09:43:16;;;;;;;11.52;6.38;;;;;;;5.32;75.09;92387.84;2058779;69;20581;-85
2024/01/01 09:45:48;;;;;;;10.95;5.30;;;;;;;5.43;74.37;92389.31;2058645;69;20229;-82
2024/01/01 09:48:14;;;;;;;8.73;4.97;;;;;;;5.86;74.60;92396.00;2063769;69;20165;-87
2024/01/01 09:50:44;;;;;;;8.10;4.75;;;;;;;6.49;72.99;92401.81;2065258;69;20133;-84
2024/01/01 09:53:12;;;;;;;7.40;4.22;;;;;;;6.65;71.39;92405.03;2062082;69;20149;-86
2024/01/01 09:55:38;;;;;;;8.63;5.05;;;;;;;7.26;69.80;92400.84;2061796;69;20353;-83
2024/01/01 09:58:04;;;;;;;8.40;5.55;;;;;;;7.33;67.75;92403.47;2062105;69;20236;-83
2024/01/01 10:00:30;;;;;;;9.15;5.07;;;;;;;7.29;67.85;92389.19;2060162;69;20149;-86
2024/01/01 10:03:09;;;;;;;8.95;4.57;;;;;;;7.27;66.39;92383.44;2060370;69;20252;-84
2024/01/01 10:05:34;;;;;;;9.10;5.63;;;;;;;6.76;67.44;92379.97;2061946;69;20255;-83
2024/01/01 10:08:11;;;;;;;6.97;4.60;;;;;;;6.88;65.84;92372.41;2058675;69;20236;-86
2024/01/01 10:10:38;;;;;;;13.38;6.00;;;;;;;7.07;66.13;92371.59;2062067;69;20145;-85
2024/01/01 10:13:14;;;;;;;20.30;9.95;;;;;;;7.18;65.62;92366.69;2061856;69;20149;-88
2024/01/01 10:15:42;;;;;;;8.50;5.60;;;;;;;7.13;65.32;92348.88;2061252;69;20153;-86
2024/01/01 10:18:16;;;;;;;6.95;4.50;;;;;;;7.28;66.37;92365.28;2061579;69;20153;-83
2024/01/01 10:20:45;;;;;;;10.15;5.47;;;;;;;7.46;66.04;92362.25;2058482;69;20130;-85
2024/01/01 10:23:20;;;;;;;8.93;5.95;;;;;;;6.92;66.67;92371.97;2058611;69;20680;-85
2024/01/01 10:26:06;;;;;;;9.77;6.50;;;;;;;7.51;67.13;92369.59;2060794;69;20168;-84
2024/01/01 10:28:32;;;;;;;6.63;4.00;;;;;;;7.96;64.21;92358.50;2064571;69;20145;-90
2024/01/01 10:31:00;;;;;;;6.70;3.72;;;;;;;8.61;62.57;92346.56;2062145;69;20165;-90
2024/01/01 10:33:31;;;;;;;4.78;3.10;;;;;;;9.24;59.94;92349.63;2060263;69;20638;-89
2024/01/01 10:35:59;;;;;;;4.93;3.15;;;;;;;9.64;58.12;92344.97;2061871;69;20603;-88
2024/01/01 10:38:26;;;;;;;5.25;3.20;;;;;;;10.90;57.19;92348.47;2062126;69;20296;-86
2024/01/01 10:40:55;;;;;;;5.57;3.63;;;;;;;11.49;54.24;92354.41;2061799;69;20145;-85
2024/01/01 10:43:30;;;;;;;6.75;4.22;;;;;;;10.94;54.87;92357.88;2061427;69;20227;-92
2024/01/01 10:46:03;;;;;;;6.88;3.50;;;;;;;11.71;52.90;92368.91;2062104;69;20179;-92
2024/01/01 10:48:31;;;;;;;5.97;3.33;;;;;;;11.84;51.10;92353.38;2061899;69;20601;-92
2024/01/01 10:51:08;;;;;;;4.50;2.83;;;;;;;11.76;50.62;92342.38;2062862;69;20179;-87
2024/01/01 10:53:44;;;;;;;4.88;2.92;;;;;;;12.86;49.23;92352.66;2065382;69;20133;-86
2024/01/01 10:56:41;;;;;;;5.25;2.55;;;;;;;13.77;48.42;92358.91;2060224;69;20149;-86
2024/01/01 10:59:21;;;;;;;4.10;2.50;;;;;;;14.54;47.29;92363.56;2058648;69;20181;-88
2024/01/01 11:01:51;;;;;;;6.05;4.20;;;;;;;15.75;45.22;92363.97;2058914;69;20568;-81
2024/01/01 11:04:22;;;;;;;5.05;3.30;;;;;;;13.90;47.42;92360.88;2061108;69;20192;-82
2024/01/01 11:06:49;;;;;;;5.95;4.10;;;;;;;14.21;49.52;92362.91;2061806;69;20159;-82
2024/01/01 11:09:21;;;;;;;8.30;5.78;;;;;;;14.57;48.48;92365.84;2061591;69;20239;-82
2024/01/01 11:11:52;;;;;;;9.10;4.90;;;;;;;12.87;50.45;92368.22;2061839;69;20145;-83
2024/01/01 11:14:37;;;;;;;6.38;4.53;;;;;;;13.54;49.26;92362.13;2064089;69;20181;-85
2024/01/01 11:17:09;;;;;;;6.88;4.93;;;;;;;11.56;50.55;92356.19;2059504;69;20537;-82
2024/01/01 11:19:48;;;;;;;21.67;13.90;;;;;;;12.44;50.54;92360.56;2061994;69;20189;-81
2024/01/01 11:22:20;;;;;;;8.98;5.13;;;;;;;11.69;50.79;92363.19;2062306;69;20153;-83
2024/01/01 11:24:47;;;;;;;12.27;8.65;;;;;;;11.80;50.92;92359.50;2065321;69;20159;-81
2024/01/01 11:27:25;;;;;;;7.80;3.58;;;;;;;10.39;52.29;92354.16;2066116;69;20153;-80
2024/01/01 11:29:52;;;;;;;35.90;22.70;;;;;;;10.09;52.08;92353.88;2063299;69;20145;-84
2024/01/01 11:32:19;;;;;;;28.52;20.15;;;;;;;10.04;52.67;92359.91;2064761;69;20142;-79